CTSO2: Bird Creek At Catoosa

Data processed at Fri Jan 05 2018 23:31


All information presented herein is the property of the government of the United States of America and may be revised or deleted at any time without prior notice.
Dissemination of this information without the expressed written consent of the Public Affairs Office, Tulsa District U.S. Army Corps of Engineers is strictly prohibited.
These data are gathered electronically and, as presented, have not undergone any form of quality control. These data are not guaranteed to be valid or correct.
Go to home page.
Go to station list.

Upstream stations:

Downstream station:
Previous Day
Next Day
Current Day
    
SHEF ID:       CTSO2     Bird Ck at State Highway 266 nea
STATION TYPE:  

                STAGE  STAGE(2)  RIV-FLOW  WTR-TEMP   DIS-OXY        PH   CONDUCT  BAT-LOAD
                   ft        ft       cfs         F      mg/l        su   umho/cm      volt
              Ccp-Rev   Ccp-Rev   Ccp-Rev   Ccp-Rev   Ccp-Rev   Ccp-Rev   Ccp-Rev   Ccp-Rev
(US/Central)
01/03 00:00      3.96      3.90       108     38.30     12.49      7.89       554     12.65
01/03 01:00      3.95      3.89       106     38.07     12.55      7.89       542     12.65
01/03 02:00      3.97      3.89       109     37.81     12.62      7.90       536     12.65
01/03 03:00      3.94      3.90       104     37.65     12.69      7.91       532     12.57
01/03 04:00      3.94      3.88       104     37.56     12.75      7.91       528     12.57
01/03 05:00      3.93      3.87       103     37.60     12.75      7.92       528     12.57
01/03 06:00      3.90      3.82        98     37.63     12.75      7.92       527     12.57
01/03 07:00      3.87      3.77        93     37.67     12.71      7.92       528     12.57
01/03 08:00      3.87      3.79        93     37.81     12.67      7.91       529     12.57
01/03 09:00      3.89      3.80        96     38.05     12.66      7.91       530     13.68
01/03 10:00      3.88      3.81        94     38.37     12.57      7.90       531     14.00
01/03 11:00      3.87      3.80        93     38.62     12.51      7.89       533     14.64
01/03 12:00      3.89      3.83        96     38.84     12.46      7.89       534     14.24
01/03 13:00      3.89      3.80        96     39.07     12.41      7.88       534     14.08
01/03 14:00      3.90      3.82        98     39.20     12.39      7.88       536     13.60
01/03 15:00      3.92      3.84       101     39.34     12.37      7.88       537     13.13
01/03 16:00      3.94      3.85       104     39.51     12.37      7.87       538     13.05
01/03 17:00      3.93      3.67       103     39.56     12.36      7.88       540     12.97
01/03 18:00      3.96      3.67       108     39.60     12.34      7.87       551     12.89
01/03 19:00      3.94      3.67       104     39.70     12.32      7.87       566     12.81
01/03 20:00      3.96      3.77       108     39.81     12.27      7.88       572     12.81
01/03 21:00      3.96      3.90       108     39.79     12.23      7.86       564     12.73
01/03 22:00      4.00      3.89       115     39.69     12.21      7.86       557     12.73
01/03 23:00      3.97      3.93       109     39.45     12.22      7.86       547     12.73